sensor_id;sensor_type;location;lat;lon;timestamp;P1;durP1;ratioP1;P2;durP2;ratioP2
12385;SDS011;6257;57.634;18.310;2022-12-26T00:02:06;6.63;;;5.40;;
12385;SDS011;6257;57.634;18.310;2022-12-26T00:04:33;6.80;;;5.10;;
12385;SDS011;6257;57.634;18.310;2022-12-26T00:07:00;7.10;;;5.17;;
12385;SDS011;6257;57.634;18.310;2022-12-26T00:09:28;8.20;;;6.27;;
12385;SDS011;6257;57.634;18.310;2022-12-26T00:11:57;7.20;;;5.60;;
12385;SDS011;6257;57.634;18.310;2022-12-26T00:14:24;9.07;;;5.60;;
12385;SDS011;6257;57.634;18.310;2022-12-26T00:16:51;8.33;;;5.50;;
12385;SDS011;6257;57.634;18.310;2022-12-26T00:19:19;6.60;;;5.10;;
12385;SDS011;6257;57.634;18.310;2022-12-26T00:21:46;9.57;;;5.40;;
12385;SDS011;6257;57.634;18.310;2022-12-26T00:24:13;7.77;;;5.60;;
12385;SDS011;6257;57.634;18.310;2022-12-26T00:26:41;9.10;;;5.63;;
12385;SDS011;6257;57.634;18.310;2022-12-26T00:29:08;10.07;;;6.00;;
12385;SDS011;6257;57.634;18.310;2022-12-26T00:31:35;8.70;;;6.70;;
12385;SDS011;6257;57.634;18.310;2022-12-26T00:34:02;10.97;;;7.17;;
12385;SDS011;6257;57.634;18.310;2022-12-26T00:36:30;10.87;;;7.57;;
12385;SDS011;6257;57.634;18.310;2022-12-26T00:38:59;10.27;;;7.37;;
12385;SDS011;6257;57.634;18.310;2022-12-26T00:41:28;11.00;;;8.13;;
12385;SDS011;6257;57.634;18.310;2022-12-26T00:43:59;10.63;;;7.87;;
12385;SDS011;6257;57.634;18.310;2022-12-26T00:46:27;11.77;;;6.70;;
12385;SDS011;6257;57.634;18.310;2022-12-26T00:48:54;10.40;;;7.50;;
12385;SDS011;6257;57.634;18.310;2022-12-26T00:51:22;10.13;;;7.07;;
12385;SDS011;6257;57.634;18.310;2022-12-26T00:53:49;12.23;;;7.87;;
12385;SDS011;6257;57.634;18.310;2022-12-26T00:56:16;10.50;;;7.93;;
12385;SDS011;6257;57.634;18.310;2022-12-26T00:58:43;11.03;;;8.03;;
12385;SDS011;6257;57.634;18.310;2022-12-26T01:01:13;9.83;;;7.37;;
12385;SDS011;6257;57.634;18.310;2022-12-26T01:03:42;10.47;;;7.20;;
12385;SDS011;6257;57.634;18.310;2022-12-26T01:06:10;10.43;;;7.53;;
12385;SDS011;6257;57.634;18.310;2022-12-26T01:08:39;10.90;;;7.53;;
12385;SDS011;6257;57.634;18.310;2022-12-26T01:11:07;9.47;;;7.03;;
12385;SDS011;6257;57.634;18.310;2022-12-26T01:13:36;10.90;;;7.10;;
12385;SDS011;6257;57.634;18.310;2022-12-26T01:16:05;11.17;;;7.63;;
12385;SDS011;6257;57.634;18.310;2022-12-26T01:18:34;10.73;;;7.17;;
12385;SDS011;6257;57.634;18.310;2022-12-26T01:21:03;10.37;;;7.77;;
12385;SDS011;6257;57.634;18.310;2022-12-26T01:23:32;13.53;;;7.80;;
12385;SDS011;6257;57.634;18.310;2022-12-26T01:25:59;11.40;;;8.47;;
12385;SDS011;6257;57.634;18.310;2022-12-26T01:28:27;10.67;;;7.43;;
12385;SDS011;6257;57.634;18.310;2022-12-26T01:30:54;11.03;;;7.13;;
12385;SDS011;6257;57.634;18.310;2022-12-26T01:33:25;10.47;;;7.07;;
12385;SDS011;6257;57.634;18.310;2022-12-26T01:35:54;10.17;;;7.80;;
12385;SDS011;6257;57.634;18.310;2022-12-26T01:38:21;10.60;;;7.20;;
12385;SDS011;6257;57.634;18.310;2022-12-26T01:40:48;11.43;;;7.50;;
12385;SDS011;6257;57.634;18.310;2022-12-26T01:43:52;13.07;;;7.73;;
12385;SDS011;6257;57.634;18.310;2022-12-26T01:46:23;10.40;;;7.20;;
12385;SDS011;6257;57.634;18.310;2022-12-26T01:48:53;10.27;;;7.47;;
12385;SDS011;6257;57.634;18.310;2022-12-26T01:51:25;10.73;;;7.73;;
12385;SDS011;6257;57.634;18.310;2022-12-26T01:53:57;10.70;;;7.47;;
12385;SDS011;6257;57.634;18.310;2022-12-26T01:56:28;13.33;;;8.30;;
12385;SDS011;6257;57.634;18.310;2022-12-26T01:59:01;10.77;;;7.07;;
12385;SDS011;6257;57.634;18.310;2022-12-26T02:01:32;12.90;;;8.73;;
12385;SDS011;6257;57.634;18.310;2022-12-26T02:04:04;14.60;;;8.80;;
12385;SDS011;6257;57.634;18.310;2022-12-26T02:06:54;15.67;;;9.33;;
12385;SDS011;6257;57.634;18.310;2022-12-26T02:09:21;11.37;;;8.40;;
12385;SDS011;6257;57.634;18.310;2022-12-26T02:11:50;14.60;;;9.20;;
12385;SDS011;6257;57.634;18.310;2022-12-26T02:14:22;13.10;;;8.97;;
12385;SDS011;6257;57.634;18.310;2022-12-26T02:16:50;14.60;;;9.60;;
12385;SDS011;6257;57.634;18.310;2022-12-26T02:19:20;14.53;;;9.30;;
12385;SDS011;6257;57.634;18.310;2022-12-26T02:22:01;15.27;;;9.63;;
12385;SDS011;6257;57.634;18.310;2022-12-26T02:27:42;16.27;;;9.93;;
12385;SDS011;6257;57.634;18.310;2022-12-26T02:30:41;16.23;;;10.20;;
12385;SDS011;6257;57.634;18.310;2022-12-26T02:33:23;15.87;;;10.43;;
12385;SDS011;6257;57.634;18.310;2022-12-26T02:36:12;17.07;;;10.73;;
12385;SDS011;6257;57.634;18.310;2022-12-26T02:38:51;19.23;;;11.03;;
12385;SDS011;6257;57.634;18.310;2022-12-26T02:41:30;17.10;;;10.60;;
12385;SDS011;6257;57.634;18.310;2022-12-26T02:44:07;18.03;;;10.10;;
12385;SDS011;6257;57.634;18.310;2022-12-26T02:47:05;15.87;;;10.43;;
12385;SDS011;6257;57.634;18.310;2022-12-26T02:49:41;17.17;;;9.93;;
12385;SDS011;6257;57.634;18.310;2022-12-26T02:52:39;14.40;;;9.13;;
12385;SDS011;6257;57.634;18.310;2022-12-26T02:55:30;13.50;;;8.80;;
12385;SDS011;6257;57.634;18.310;2022-12-26T02:58:17;13.93;;;9.10;;
12385;SDS011;6257;57.634;18.310;2022-12-26T03:01:05;13.73;;;8.77;;
12385;SDS011;6257;57.634;18.310;2022-12-26T03:04:00;18.23;;;9.83;;
12385;SDS011;6257;57.634;18.310;2022-12-26T03:06:51;14.97;;;8.83;;
12385;SDS011;6257;57.634;18.310;2022-12-26T03:09:38;14.60;;;9.73;;
12385;SDS011;6257;57.634;18.310;2022-12-26T03:12:31;14.97;;;9.77;;
12385;SDS011;6257;57.634;18.310;2022-12-26T03:15:23;15.47;;;10.50;;
12385;SDS011;6257;57.634;18.310;2022-12-26T03:17:54;16.07;;;9.77;;
12385;SDS011;6257;57.634;18.310;2022-12-26T03:20:27;16.00;;;10.53;;
12385;SDS011;6257;57.634;18.310;2022-12-26T03:22:56;15.43;;;9.80;;
12385;SDS011;6257;57.634;18.310;2022-12-26T03:25:29;17.83;;;10.07;;
12385;SDS011;6257;57.634;18.310;2022-12-26T03:28:20;19.33;;;10.20;;
12385;SDS011;6257;57.634;18.310;2022-12-26T03:30:48;16.03;;;9.93;;
12385;SDS011;6257;57.634;18.310;2022-12-26T03:33:15;19.13;;;10.80;;
12385;SDS011;6257;57.634;18.310;2022-12-26T03:36:02;14.27;;;9.13;;
12385;SDS011;6257;57.634;18.310;2022-12-26T03:38:32;16.20;;;9.17;;
12385;SDS011;6257;57.634;18.310;2022-12-26T03:41:20;16.40;;;8.80;;
12385;SDS011;6257;57.634;18.310;2022-12-26T03:44:13;15.07;;;8.90;;
12385;SDS011;6257;57.634;18.310;2022-12-26T03:47:09;13.67;;;8.83;;
12385;SDS011;6257;57.634;18.310;2022-12-26T03:50:00;12.53;;;8.37;;
12385;SDS011;6257;57.634;18.310;2022-12-26T03:52:54;13.77;;;9.00;;
12385;SDS011;6257;57.634;18.310;2022-12-26T03:55:46;12.00;;;8.27;;
12385;SDS011;6257;57.634;18.310;2022-12-26T03:58:38;15.00;;;8.13;;
12385;SDS011;6257;57.634;18.310;2022-12-26T04:01:26;12.47;;;7.83;;
12385;SDS011;6257;57.634;18.310;2022-12-26T04:04:13;10.57;;;7.57;;
12385;SDS011;6257;57.634;18.310;2022-12-26T04:07:02;14.10;;;8.53;;
12385;SDS011;6257;57.634;18.310;2022-12-26T04:09:53;13.83;;;8.40;;
12385;SDS011;6257;57.634;18.310;2022-12-26T04:12:42;14.03;;;8.63;;
12385;SDS011;6257;57.634;18.310;2022-12-26T04:15:30;16.13;;;7.87;;
12385;SDS011;6257;57.634;18.310;2022-12-26T04:18:21;13.70;;;8.37;;
12385;SDS011;6257;57.634;18.310;2022-12-26T04:21:10;13.70;;;8.57;;
12385;SDS011;6257;57.634;18.310;2022-12-26T04:24:16;15.93;;;8.87;;
12385;SDS011;6257;57.634;18.310;2022-12-26T04:27:07;13.57;;;8.77;;
12385;SDS011;6257;57.634;18.310;2022-12-26T04:29:56;13.47;;;8.50;;
12385;SDS011;6257;57.634;18.310;2022-12-26T04:32:41;14.07;;;8.37;;
12385;SDS011;6257;57.634;18.310;2022-12-26T04:35:29;15.00;;;8.57;;
12385;SDS011;6257;57.634;18.310;2022-12-26T04:38:18;14.70;;;8.47;;
12385;SDS011;6257;57.634;18.310;2022-12-26T04:41:05;13.77;;;8.40;;
12385;SDS011;6257;57.634;18.310;2022-12-26T04:43:53;14.97;;;9.20;;
12385;SDS011;6257;57.634;18.310;2022-12-26T04:46:30;13.87;;;8.07;;
12385;SDS011;6257;57.634;18.310;2022-12-26T04:48:58;16.20;;;9.47;;
12385;SDS011;6257;57.634;18.310;2022-12-26T04:51:46;14.70;;;9.20;;
12385;SDS011;6257;57.634;18.310;2022-12-26T04:54:13;14.03;;;8.40;;
12385;SDS011;6257;57.634;18.310;2022-12-26T04:56:41;16.70;;;9.43;;
12385;SDS011;6257;57.634;18.310;2022-12-26T04:59:09;17.00;;;9.17;;
12385;SDS011;6257;57.634;18.310;2022-12-26T05:01:36;16.03;;;8.67;;
12385;SDS011;6257;57.634;18.310;2022-12-26T05:04:20;16.33;;;8.23;;
12385;SDS011;6257;57.634;18.310;2022-12-26T05:07:08;13.67;;;8.43;;
12385;SDS011;6257;57.634;18.310;2022-12-26T05:09:56;14.43;;;7.87;;
12385;SDS011;6257;57.634;18.310;2022-12-26T05:12:23;14.70;;;8.10;;
12385;SDS011;6257;57.634;18.310;2022-12-26T05:14:51;15.27;;;7.93;;
12385;SDS011;6257;57.634;18.310;2022-12-26T05:17:19;13.97;;;7.83;;
12385;SDS011;6257;57.634;18.310;2022-12-26T05:20:04;14.47;;;7.47;;
12385;SDS011;6257;57.634;18.310;2022-12-26T05:22:49;15.90;;;8.57;;
12385;SDS011;6257;57.634;18.310;2022-12-26T05:25:36;15.43;;;8.17;;
12385;SDS011;6257;57.634;18.310;2022-12-26T05:28:24;11.03;;;7.40;;
12385;SDS011;6257;57.634;18.310;2022-12-26T05:31:11;12.87;;;7.83;;
12385;SDS011;6257;57.634;18.310;2022-12-26T05:33:41;14.93;;;7.90;;
12385;SDS011;6257;57.634;18.310;2022-12-26T05:36:27;13.40;;;7.23;;
12385;SDS011;6257;57.634;18.310;2022-12-26T05:38:56;13.97;;;7.47;;
12385;SDS011;6257;57.634;18.310;2022-12-26T05:41:23;14.27;;;7.57;;
12385;SDS011;6257;57.634;18.310;2022-12-26T05:43:51;12.53;;;7.10;;
12385;SDS011;6257;57.634;18.310;2022-12-26T05:46:19;14.67;;;7.77;;
12385;SDS011;6257;57.634;18.310;2022-12-26T05:48:46;12.97;;;8.10;;
12385;SDS011;6257;57.634;18.310;2022-12-26T05:51:14;15.37;;;8.30;;
12385;SDS011;6257;57.634;18.310;2022-12-26T05:53:42;15.53;;;7.90;;
12385;SDS011;6257;57.634;18.310;2022-12-26T05:56:09;17.83;;;8.50;;
12385;SDS011;6257;57.634;18.310;2022-12-26T05:58:38;18.67;;;8.73;;
12385;SDS011;6257;57.634;18.310;2022-12-26T06:01:07;16.17;;;8.30;;
12385;SDS011;6257;57.634;18.310;2022-12-26T06:03:36;16.70;;;8.10;;
12385;SDS011;6257;57.634;18.310;2022-12-26T06:06:04;18.77;;;8.93;;
12385;SDS011;6257;57.634;18.310;2022-12-26T06:08:32;16.63;;;8.70;;
12385;SDS011;6257;57.634;18.310;2022-12-26T06:11:01;13.43;;;8.60;;
12385;SDS011;6257;57.634;18.310;2022-12-26T06:13:29;16.57;;;8.83;;
12385;SDS011;6257;57.634;18.310;2022-12-26T06:15:56;14.33;;;8.77;;
12385;SDS011;6257;57.634;18.310;2022-12-26T06:18:24;17.10;;;8.70;;
12385;SDS011;6257;57.634;18.310;2022-12-26T06:20:52;16.23;;;8.47;;
12385;SDS011;6257;57.634;18.310;2022-12-26T06:23:19;15.77;;;8.17;;
12385;SDS011;6257;57.634;18.310;2022-12-26T06:25:51;15.47;;;8.67;;
12385;SDS011;6257;57.634;18.310;2022-12-26T06:28:20;16.07;;;8.47;;
12385;SDS011;6257;57.634;18.310;2022-12-26T06:30:48;14.47;;;7.73;;
12385;SDS011;6257;57.634;18.310;2022-12-26T06:33:15;18.17;;;9.03;;
12385;SDS011;6257;57.634;18.310;2022-12-26T06:35:42;19.53;;;9.10;;
12385;SDS011;6257;57.634;18.310;2022-12-26T06:38:11;17.43;;;9.57;;
12385;SDS011;6257;57.634;18.310;2022-12-26T06:40:41;17.23;;;9.20;;
12385;SDS011;6257;57.634;18.310;2022-12-26T06:43:09;21.57;;;9.40;;
12385;SDS011;6257;57.634;18.310;2022-12-26T06:45:36;16.80;;;9.57;;
12385;SDS011;6257;57.634;18.310;2022-12-26T06:48:03;15.83;;;9.17;;
12385;SDS011;6257;57.634;18.310;2022-12-26T06:50:31;17.37;;;9.17;;
12385;SDS011;6257;57.634;18.310;2022-12-26T06:53:00;18.97;;;9.57;;
12385;SDS011;6257;57.634;18.310;2022-12-26T06:55:29;21.13;;;10.27;;
12385;SDS011;6257;57.634;18.310;2022-12-26T06:57:56;16.80;;;9.17;;
12385;SDS011;6257;57.634;18.310;2022-12-26T07:00:23;19.83;;;9.10;;
12385;SDS011;6257;57.634;18.310;2022-12-26T07:02:50;18.03;;;9.40;;
12385;SDS011;6257;57.634;18.310;2022-12-26T07:05:17;16.60;;;9.33;;
12385;SDS011;6257;57.634;18.310;2022-12-26T07:07:48;21.40;;;10.83;;
12385;SDS011;6257;57.634;18.310;2022-12-26T07:10:16;20.73;;;9.13;;
12385;SDS011;6257;57.634;18.310;2022-12-26T07:12:45;18.93;;;9.53;;
12385;SDS011;6257;57.634;18.310;2022-12-26T07:15:13;22.17;;;10.50;;
12385;SDS011;6257;57.634;18.310;2022-12-26T07:17:41;20.10;;;9.97;;
12385;SDS011;6257;57.634;18.310;2022-12-26T07:20:08;19.30;;;9.67;;
12385;SDS011;6257;57.634;18.310;2022-12-26T07:22:36;18.80;;;9.77;;
12385;SDS011;6257;57.634;18.310;2022-12-26T07:25:04;18.50;;;9.47;;
12385;SDS011;6257;57.634;18.310;2022-12-26T07:27:32;20.67;;;9.77;;
12385;SDS011;6257;57.634;18.310;2022-12-26T07:30:00;18.63;;;10.17;;
12385;SDS011;6257;57.634;18.310;2022-12-26T07:32:31;19.73;;;9.23;;
12385;SDS011;6257;57.634;18.310;2022-12-26T07:34:58;20.67;;;9.67;;
12385;SDS011;6257;57.634;18.310;2022-12-26T07:37:25;19.20;;;10.33;;
12385;SDS011;6257;57.634;18.310;2022-12-26T07:39:52;19.90;;;9.70;;
12385;SDS011;6257;57.634;18.310;2022-12-26T07:42:20;17.47;;;10.13;;
12385;SDS011;6257;57.634;18.310;2022-12-26T07:44:47;16.03;;;10.07;;
12385;SDS011;6257;57.634;18.310;2022-12-26T07:47:15;18.67;;;10.27;;
12385;SDS011;6257;57.634;18.310;2022-12-26T07:49:42;15.63;;;9.53;;
12385;SDS011;6257;57.634;18.310;2022-12-26T07:52:09;20.80;;;10.13;;
12385;SDS011;6257;57.634;18.310;2022-12-26T07:54:36;20.17;;;10.10;;
12385;SDS011;6257;57.634;18.310;2022-12-26T07:57:03;20.20;;;10.73;;
12385;SDS011;6257;57.634;18.310;2022-12-26T07:59:30;17.57;;;9.73;;
12385;SDS011;6257;57.634;18.310;2022-12-26T08:01:57;19.13;;;8.93;;
12385;SDS011;6257;57.634;18.310;2022-12-26T08:04:30;22.83;;;10.53;;
12385;SDS011;6257;57.634;18.310;2022-12-26T08:06:57;18.83;;;10.77;;
12385;SDS011;6257;57.634;18.310;2022-12-26T08:09:24;17.23;;;9.23;;
12385;SDS011;6257;57.634;18.310;2022-12-26T08:11:51;19.47;;;10.17;;
12385;SDS011;6257;57.634;18.310;2022-12-26T08:14:18;18.00;;;10.40;;
12385;SDS011;6257;57.634;18.310;2022-12-26T08:16:45;23.27;;;11.27;;
12385;SDS011;6257;57.634;18.310;2022-12-26T08:19:12;23.07;;;11.50;;
12385;SDS011;6257;57.634;18.310;2022-12-26T08:21:41;17.43;;;10.43;;
12385;SDS011;6257;57.634;18.310;2022-12-26T08:24:09;20.00;;;10.70;;
12385;SDS011;6257;57.634;18.310;2022-12-26T08:26:37;20.23;;;10.57;;
12385;SDS011;6257;57.634;18.310;2022-12-26T08:29:04;20.37;;;11.43;;
12385;SDS011;6257;57.634;18.310;2022-12-26T08:31:31;22.07;;;10.77;;
12385;SDS011;6257;57.634;18.310;2022-12-26T08:33:59;22.40;;;11.87;;
12385;SDS011;6257;57.634;18.310;2022-12-26T08:36:26;24.23;;;11.53;;
12385;SDS011;6257;57.634;18.310;2022-12-26T08:38:54;17.87;;;10.63;;
12385;SDS011;6257;57.634;18.310;2022-12-26T08:41:23;18.63;;;9.17;;
12385;SDS011;6257;57.634;18.310;2022-12-26T08:43:51;20.60;;;10.77;;
12385;SDS011;6257;57.634;18.310;2022-12-26T08:46:19;21.60;;;10.03;;
12385;SDS011;6257;57.634;18.310;2022-12-26T08:48:47;18.77;;;10.03;;
12385;SDS011;6257;57.634;18.310;2022-12-26T08:51:15;18.77;;;10.03;;
12385;SDS011;6257;57.634;18.310;2022-12-26T08:53:44;19.23;;;11.03;;
12385;SDS011;6257;57.634;18.310;2022-12-26T08:56:15;21.80;;;11.33;;
12385;SDS011;6257;57.634;18.310;2022-12-26T08:58:44;20.70;;;10.60;;
12385;SDS011;6257;57.634;18.310;2022-12-26T09:01:12;26.27;;;12.70;;
12385;SDS011;6257;57.634;18.310;2022-12-26T09:03:42;20.10;;;10.73;;
12385;SDS011;6257;57.634;18.310;2022-12-26T09:06:09;22.77;;;11.70;;
12385;SDS011;6257;57.634;18.310;2022-12-26T09:08:37;18.80;;;10.73;;
12385;SDS011;6257;57.634;18.310;2022-12-26T09:11:06;24.40;;;11.63;;
12385;SDS011;6257;57.634;18.310;2022-12-26T09:13:36;20.90;;;10.70;;
12385;SDS011;6257;57.634;18.310;2022-12-26T09:16:07;21.33;;;11.67;;
12385;SDS011;6257;57.634;18.310;2022-12-26T09:18:36;17.53;;;9.43;;
12385;SDS011;6257;57.634;18.310;2022-12-26T09:21:04;27.07;;;13.03;;
12385;SDS011;6257;57.634;18.310;2022-12-26T09:23:33;26.40;;;13.23;;
12385;SDS011;6257;57.634;18.310;2022-12-26T09:26:04;26.50;;;13.30;;
12385;SDS011;6257;57.634;18.310;2022-12-26T09:28:32;25.27;;;13.40;;
12385;SDS011;6257;57.634;18.310;2022-12-26T09:31:01;20.13;;;12.50;;
12385;SDS011;6257;57.634;18.310;2022-12-26T09:33:29;25.07;;;12.70;;
12385;SDS011;6257;57.634;18.310;2022-12-26T09:35:57;22.80;;;13.23;;
12385;SDS011;6257;57.634;18.310;2022-12-26T09:38:24;29.13;;;13.83;;
12385;SDS011;6257;57.634;18.310;2022-12-26T09:40:54;23.73;;;12.73;;
12385;SDS011;6257;57.634;18.310;2022-12-26T09:43:31;26.40;;;13.17;;
12385;SDS011;6257;57.634;18.310;2022-12-26T09:46:13;20.67;;;11.73;;
12385;SDS011;6257;57.634;18.310;2022-12-26T09:48:49;21.23;;;12.77;;
12385;SDS011;6257;57.634;18.310;2022-12-26T09:51:21;21.93;;;11.67;;
12385;SDS011;6257;57.634;18.310;2022-12-26T09:53:50;22.63;;;12.30;;
12385;SDS011;6257;57.634;18.310;2022-12-26T09:56:18;23.17;;;13.90;;
12385;SDS011;6257;57.634;18.310;2022-12-26T09:58:50;22.10;;;13.17;;
12385;SDS011;6257;57.634;18.310;2022-12-26T10:01:22;22.63;;;13.87;;
12385;SDS011;6257;57.634;18.310;2022-12-26T10:03:51;25.50;;;13.10;;
12385;SDS011;6257;57.634;18.310;2022-12-26T10:06:21;19.33;;;12.10;;
12385;SDS011;6257;57.634;18.310;2022-12-26T10:11:58;27.27;;;12.93;;
12385;SDS011;6257;57.634;18.310;2022-12-26T10:14:47;23.90;;;11.93;;
12385;SDS011;6257;57.634;18.310;2022-12-26T10:17:22;22.77;;;12.23;;
12385;SDS011;6257;57.634;18.310;2022-12-26T10:20:11;23.57;;;13.03;;
12385;SDS011;6257;57.634;18.310;2022-12-26T10:25:48;27.40;;;12.77;;
12385;SDS011;6257;57.634;18.310;2022-12-26T10:28:23;21.43;;;11.77;;
12385;SDS011;6257;57.634;18.310;2022-12-26T10:30:57;25.23;;;12.80;;
12385;SDS011;6257;57.634;18.310;2022-12-26T10:33:32;22.33;;;12.10;;
12385;SDS011;6257;57.634;18.310;2022-12-26T10:36:04;22.87;;;11.90;;
12385;SDS011;6257;57.634;18.310;2022-12-26T10:38:32;23.13;;;13.90;;
12385;SDS011;6257;57.634;18.310;2022-12-26T10:41:03;23.13;;;14.20;;
12385;SDS011;6257;57.634;18.310;2022-12-26T10:43:37;23.37;;;13.10;;
12385;SDS011;6257;57.634;18.310;2022-12-26T10:49:08;22.43;;;12.13;;
12385;SDS011;6257;57.634;18.310;2022-12-26T10:51:36;19.03;;;11.63;;
12385;SDS011;6257;57.634;18.310;2022-12-26T10:54:07;20.57;;;12.60;;
12385;SDS011;6257;57.634;18.310;2022-12-26T10:56:40;20.43;;;11.60;;
12385;SDS011;6257;57.634;18.310;2022-12-26T10:59:10;20.97;;;12.40;;
12385;SDS011;6257;57.634;18.310;2022-12-26T11:01:42;23.70;;;12.50;;
12385;SDS011;6257;57.634;18.310;2022-12-26T11:04:18;17.57;;;11.23;;
12385;SDS011;6257;57.634;18.310;2022-12-26T11:06:47;18.23;;;10.77;;
12385;SDS011;6257;57.634;18.310;2022-12-26T11:09:33;19.57;;;12.03;;
12385;SDS011;6257;57.634;18.310;2022-12-26T11:12:03;19.63;;;10.97;;
12385;SDS011;6257;57.634;18.310;2022-12-26T11:14:33;20.47;;;11.23;;
12385;SDS011;6257;57.634;18.310;2022-12-26T11:17:05;23.07;;;12.20;;
12385;SDS011;6257;57.634;18.310;2022-12-26T11:19:36;19.17;;;11.53;;
12385;SDS011;6257;57.634;18.310;2022-12-26T11:25:03;18.30;;;11.30;;
12385;SDS011;6257;57.634;18.310;2022-12-26T11:27:42;22.50;;;10.97;;
12385;SDS011;6257;57.634;18.310;2022-12-26T11:30:14;18.97;;;11.97;;
12385;SDS011;6257;57.634;18.310;2022-12-26T11:32:51;18.27;;;11.20;;
12385;SDS011;6257;57.634;18.310;2022-12-26T11:35:43;19.87;;;11.30;;
12385;SDS011;6257;57.634;18.310;2022-12-26T11:38:13;17.17;;;11.13;;
12385;SDS011;6257;57.634;18.310;2022-12-26T11:40:59;18.90;;;11.43;;
12385;SDS011;6257;57.634;18.310;2022-12-26T11:43:46;19.47;;;10.90;;
12385;SDS011;6257;57.634;18.310;2022-12-26T11:46:14;19.70;;;11.40;;
12385;SDS011;6257;57.634;18.310;2022-12-26T11:48:45;17.67;;;11.57;;
12385;SDS011;6257;57.634;18.310;2022-12-26T11:51:22;18.30;;;11.70;;
12385;SDS011;6257;57.634;18.310;2022-12-26T11:54:09;21.60;;;12.13;;
12385;SDS011;6257;57.634;18.310;2022-12-26T11:56:43;24.43;;;11.67;;
12385;SDS011;6257;57.634;18.310;2022-12-26T11:59:12;22.17;;;10.87;;
12385;SDS011;6257;57.634;18.310;2022-12-26T12:01:44;21.40;;;10.37;;
12385;SDS011;6257;57.634;18.310;2022-12-26T12:04:15;18.83;;;11.80;;
12385;SDS011;6257;57.634;18.310;2022-12-26T12:06:47;21.10;;;11.73;;
12385;SDS011;6257;57.634;18.310;2022-12-26T12:09:27;19.70;;;11.03;;
12385;SDS011;6257;57.634;18.310;2022-12-26T12:12:02;20.83;;;11.73;;
12385;SDS011;6257;57.634;18.310;2022-12-26T12:14:45;21.73;;;11.73;;
12385;SDS011;6257;57.634;18.310;2022-12-26T12:17:21;21.27;;;12.40;;
12385;SDS011;6257;57.634;18.310;2022-12-26T12:19:57;22.93;;;11.53;;
12385;SDS011;6257;57.634;18.310;2022-12-26T12:22:48;23.07;;;12.77;;
12385;SDS011;6257;57.634;18.310;2022-12-26T12:25:29;21.13;;;12.20;;
12385;SDS011;6257;57.634;18.310;2022-12-26T12:28:09;19.40;;;11.27;;
12385;SDS011;6257;57.634;18.310;2022-12-26T12:30:59;19.37;;;11.40;;
12385;SDS011;6257;57.634;18.310;2022-12-26T12:33:33;18.27;;;10.90;;
12385;SDS011;6257;57.634;18.310;2022-12-26T12:36:07;20.07;;;11.13;;
12385;SDS011;6257;57.634;18.310;2022-12-26T12:38:45;20.30;;;11.07;;
12385;SDS011;6257;57.634;18.310;2022-12-26T12:41:35;24.77;;;13.37;;
12385;SDS011;6257;57.634;18.310;2022-12-26T12:44:26;20.17;;;11.93;;
12385;SDS011;6257;57.634;18.310;2022-12-26T12:47:06;21.10;;;10.40;;
12385;SDS011;6257;57.634;18.310;2022-12-26T12:49:47;24.17;;;11.87;;
12385;SDS011;6257;57.634;18.310;2022-12-26T12:52:31;19.77;;;10.07;;
12385;SDS011;6257;57.634;18.310;2022-12-26T12:55:14;19.90;;;11.37;;
12385;SDS011;6257;57.634;18.310;2022-12-26T12:58:03;19.30;;;8.93;;
12385;SDS011;6257;57.634;18.310;2022-12-26T13:00:39;18.23;;;10.20;;
12385;SDS011;6257;57.634;18.310;2022-12-26T13:03:10;16.33;;;9.47;;
12385;SDS011;6257;57.634;18.310;2022-12-26T13:05:46;18.93;;;9.67;;
12385;SDS011;6257;57.634;18.310;2022-12-26T13:08:21;16.93;;;9.03;;
12385;SDS011;6257;57.634;18.310;2022-12-26T13:10:57;16.07;;;9.07;;
12385;SDS011;6257;57.634;18.310;2022-12-26T13:13:28;16.97;;;9.73;;
12385;SDS011;6257;57.634;18.310;2022-12-26T13:16:02;12.43;;;8.27;;
12385;SDS011;6257;57.634;18.310;2022-12-26T13:18:34;13.90;;;8.47;;
12385;SDS011;6257;57.634;18.310;2022-12-26T13:21:07;17.07;;;9.10;;
12385;SDS011;6257;57.634;18.310;2022-12-26T13:23:39;15.70;;;9.13;;
12385;SDS011;6257;57.634;18.310;2022-12-26T13:26:29;15.23;;;8.30;;
12385;SDS011;6257;57.634;18.310;2022-12-26T13:29:02;13.10;;;7.97;;
12385;SDS011;6257;57.634;18.310;2022-12-26T13:31:37;14.90;;;7.80;;
12385;SDS011;6257;57.634;18.310;2022-12-26T13:34:06;12.63;;;7.87;;
12385;SDS011;6257;57.634;18.310;2022-12-26T13:36:39;15.33;;;7.83;;
12385;SDS011;6257;57.634;18.310;2022-12-26T13:42:12;10.27;;;7.27;;
12385;SDS011;6257;57.634;18.310;2022-12-26T13:51:48;11.13;;;7.07;;
12385;SDS011;6257;57.634;18.310;2022-12-26T13:54:16;13.87;;;7.20;;
12385;SDS011;6257;57.634;18.310;2022-12-26T13:56:52;10.50;;;6.40;;
12385;SDS011;6257;57.634;18.310;2022-12-26T13:59:42;9.67;;;6.33;;
12385;SDS011;6257;57.634;18.310;2022-12-26T14:02:30;10.70;;;6.30;;
12385;SDS011;6257;57.634;18.310;2022-12-26T14:05:33;12.97;;;7.10;;
12385;SDS011;6257;57.634;18.310;2022-12-26T14:08:06;10.03;;;5.93;;
12385;SDS011;6257;57.634;18.310;2022-12-26T14:10:40;10.27;;;6.50;;
12385;SDS011;6257;57.634;18.310;2022-12-26T14:13:28;8.43;;;5.60;;
12385;SDS011;6257;57.634;18.310;2022-12-26T14:16:17;11.60;;;5.97;;
12385;SDS011;6257;57.634;18.310;2022-12-26T14:18:51;9.70;;;5.33;;
12385;SDS011;6257;57.634;18.310;2022-12-26T14:21:36;9.00;;;5.60;;
12385;SDS011;6257;57.634;18.310;2022-12-26T14:24:17;10.60;;;5.50;;
12385;SDS011;6257;57.634;18.310;2022-12-26T14:26:51;7.73;;;4.90;;
12385;SDS011;6257;57.634;18.310;2022-12-26T14:29:25;7.13;;;4.30;;
12385;SDS011;6257;57.634;18.310;2022-12-26T14:32:16;6.10;;;4.07;;
12385;SDS011;6257;57.634;18.310;2022-12-26T14:35:07;5.57;;;3.90;;
12385;SDS011;6257;57.634;18.310;2022-12-26T14:37:41;7.70;;;4.73;;
12385;SDS011;6257;57.634;18.310;2022-12-26T14:40:24;5.50;;;3.73;;
12385;SDS011;6257;57.634;18.310;2022-12-26T14:45:54;6.97;;;3.90;;
12385;SDS011;6257;57.634;18.310;2022-12-26T14:51:37;5.77;;;4.10;;
12385;SDS011;6257;57.634;18.310;2022-12-26T14:54:32;7.60;;;4.67;;
12385;SDS011;6257;57.634;18.310;2022-12-26T15:00:13;6.27;;;4.20;;
12385;SDS011;6257;57.634;18.310;2022-12-26T15:05:52;6.73;;;4.17;;
12385;SDS011;6257;57.634;18.310;2022-12-26T15:08:41;8.77;;;5.10;;
12385;SDS011;6257;57.634;18.310;2022-12-26T15:11:37;7.60;;;4.80;;
12385;SDS011;6257;57.634;18.310;2022-12-26T15:17:13;7.53;;;4.43;;
12385;SDS011;6257;57.634;18.310;2022-12-26T15:23:04;11.33;;;5.10;;
12385;SDS011;6257;57.634;18.310;2022-12-26T15:25:54;10.80;;;5.53;;
12385;SDS011;6257;57.634;18.310;2022-12-26T15:28:55;10.07;;;5.67;;
12385;SDS011;6257;57.634;18.310;2022-12-26T15:31:45;8.40;;;4.77;;
12385;SDS011;6257;57.634;18.310;2022-12-26T15:37:26;11.03;;;4.90;;
12385;SDS011;6257;57.634;18.310;2022-12-26T15:40:15;8.73;;;5.20;;
12385;SDS011;6257;57.634;18.310;2022-12-26T15:42:54;8.67;;;5.10;;
12385;SDS011;6257;57.634;18.310;2022-12-26T15:45:44;6.63;;;4.30;;
12385;SDS011;6257;57.634;18.310;2022-12-26T15:48:18;6.93;;;4.17;;
12385;SDS011;6257;57.634;18.310;2022-12-26T15:51:07;9.60;;;4.80;;
12385;SDS011;6257;57.634;18.310;2022-12-26T15:53:47;6.53;;;4.07;;
12385;SDS011;6257;57.634;18.310;2022-12-26T15:56:32;6.97;;;4.17;;
12385;SDS011;6257;57.634;18.310;2022-12-26T15:59:38;6.80;;;4.17;;
12385;SDS011;6257;57.634;18.310;2022-12-26T16:02:29;7.47;;;4.50;;
12385;SDS011;6257;57.634;18.310;2022-12-26T16:05:04;6.63;;;3.83;;